Time;durP1;ratioP1;P1;durP2;ratioP2;P2;SDS_P1;SDS_P2;PMS_P1;PMS_P2;Temp;Humidity;BMP_temperature;BMP_pressure;BME280_temperature;BME280_humidity;BME280_pressure;Samples;Min_cycle;Max_cycle;Signal;HPM_P1;HPM_P2
2023/09/18 00:00:42;;;;;;;;;;;;;;;;;;5090697;28;19912;-58
2023/09/18 00:03:08;;;;;;;;;;;;;;;;;;5088507;28;19961;-58
2023/09/18 00:05:34;;;;;;;;;;;;;;;;;;5081731;28;20379;-59
2023/09/18 00:08:02;;;;;;;;;;;;;;;;;;5082287;28;19918;-58
2023/09/18 00:10:28;;;;;;;;;;;;;;;;;;5086900;28;20388;-59
2023/09/18 00:12:54;;;;;;;;;;;;;;;;;;5080486;28;21375;-58
2023/09/18 00:15:20;;;;;;;;;;;;;;;;;;5081629;28;19954;-59
2023/09/18 00:17:46;;;;;;;;;;;;;;;;;;5077944;28;19959;-59
2023/09/18 00:20:13;;;;;;;;;;;;;;;;;;5089233;28;19916;-59
2023/09/18 00:22:39;;;;;;;;;;;;;;;;;;5082492;28;19969;-59
2023/09/18 00:25:05;;;;;;;;;;;;;;;;;;5085247;28;19968;-58
2023/09/18 00:27:32;;;;;;;;;;;;;;;;;;5079912;28;19926;-59
2023/09/18 00:29:58;;;;;;;;;;;;;;;;;;5085548;28;19912;-59
2023/09/18 00:32:24;;;;;;;;;;;;;;;;;;5081623;28;20017;-58
2023/09/18 00:34:50;;;;;;;;;;;;;;;;;;5088247;28;20380;-58
2023/09/18 00:37:16;;;;;;;;;;;;;;;;;;5085992;28;19920;-59
2023/09/18 00:39:42;;;;;;;;;;;;;;;;;;5082897;28;19969;-60
2023/09/18 00:42:13;;;;;;;;;;;;;;;;;;5086283;28;19913;-58
2023/09/18 00:44:39;;;;;;;;;;;;;;;;;;5073368;28;19917;-60
2023/09/18 00:47:05;;;;;;;;;;;;;;;;;;5088487;28;19989;-58
2023/09/18 00:49:31;;;;;;;;;;;;;;;;;;5090279;28;20375;-59
2023/09/18 00:51:56;;;;;;;;;;;;;;;;;;5083542;28;19917;-58
2023/09/18 00:54:22;;;;;;;;;;;;;;;;;;5080430;28;19952;-58
2023/09/18 00:56:53;;;;;;;;;;;;;;;;;;5076933;28;20299;-58
2023/09/18 00:59:19;;;;;;;;;;;;;;;;;;5088808;28;19958;-59
2023/09/18 01:01:45;;;;;;;;;;;;;;;;;;5087635;28;19944;-61
2023/09/18 01:04:13;;;;;;;;;;;;;;;;;;5085899;28;20386;-62
2023/09/18 01:06:38;;;;;;;;;;;;;;;;;;5072963;28;19965;-62
2023/09/18 01:09:12;;;;;;;;;;;;;;;;;;5082245;28;19966;-62
2023/09/18 01:11:37;;;;;;;;;;;;;;;;;;5081578;28;19908;-61
2023/09/18 01:14:03;;;;;;;;;;;;;;;;;;5077884;28;20007;-61
2023/09/18 01:16:30;;;;;;;;;;;;;;;;;;5088480;28;19970;-62
2023/09/18 01:18:55;;;;;;;;;;;;;;;;;;5082364;28;19916;-61
2023/09/18 01:21:21;;;;;;;;;;;;;;;;;;5072966;28;19996;-62
2023/09/18 01:23:48;;;;;;;;;;;;;;;;;;5077823;28;20015;-62
2023/09/18 01:26:14;;;;;;;;;;;;;;;;;;5084539;28;19935;-62
2023/09/18 01:28:40;;;;;;;;;;;;;;;;;;5079606;28;20430;-62
2023/09/18 01:31:06;;;;;;;;;;;;;;;;;;5083029;28;19918;-62
2023/09/18 01:33:32;;;;;;;;;;;;;;;;;;5078311;28;20328;-61
2023/09/18 01:35:58;;;;;;;;;;;;;;;;;;5084065;28;19917;-62
2023/09/18 01:38:24;;;;;;;;;;;;;;;;;;5078673;28;20007;-62
2023/09/18 01:40:50;;;;;;;;;;;;;;;;;;5072614;28;20382;-61
2023/09/18 01:43:16;;;;;;;;;;;;;;;;;;5088906;28;20375;-61
2023/09/18 01:45:42;;;;;;;;;;;;;;;;;;5075488;28;19920;-62
2023/09/18 01:48:08;;;;;;;;;;;;;;;;;;5081146;28;19913;-61
2023/09/18 01:50:34;;;;;;;;;;;;;;;;;;5088223;28;20371;-61
2023/09/18 01:53:00;;;;;;;;;;;;;;;;;;5077450;28;20451;-62
2023/09/18 01:55:26;;;;;;;;;;;;;;;;;;5081454;28;20007;-61
2023/09/18 01:57:52;;;;;;;;;;;;;;;;;;5083996;28;20031;-61
2023/09/18 02:00:18;;;;;;;;;;;;;;;;;;5077648;28;20007;-62
2023/09/18 02:02:44;;;;;;;;;;;;;;;;;;5081595;28;20345;-61
2023/09/18 02:05:10;;;;;;;;;;;;;;;;;;5086691;28;19919;-61
2023/09/18 02:07:36;;;;;;;;;;;;;;;;;;5075521;28;19947;-61
2023/09/18 02:10:02;;;;;;;;;;;;;;;;;;5086324;28;19959;-60
2023/09/18 02:12:28;;;;;;;;;;;;;;;;;;5078188;28;19916;-60
2023/09/18 02:14:57;;;;;;;;;;;;;;;;;;5078441;28;19959;-60
2023/09/18 02:17:23;;;;;;;;;;;;;;;;;;5076076;28;19916;-61
2023/09/18 02:19:48;;;;;;;;;;;;;;;;;;5088898;28;19912;-60
2023/09/18 02:22:14;;;;;;;;;;;;;;;;;;5081096;28;19921;-60
2023/09/18 02:24:40;;;;;;;;;;;;;;;;;;5081035;28;19919;-61
2023/09/18 02:27:06;;;;;;;;;;;;;;;;;;5087362;28;20329;-60
2023/09/18 02:29:32;;;;;;;;;;;;;;;;;;5084633;28;19922;-60
2023/09/18 02:31:58;;;;;;;;;;;;;;;;;;5081427;28;19917;-60
2023/09/18 02:34:24;;;;;;;;;;;;;;;;;;5087607;28;19927;-60
2023/09/18 02:36:50;;;;;;;;;;;;;;;;;;5087681;28;19979;-60
2023/09/18 02:39:16;;;;;;;;;;;;;;;;;;5088694;28;20503;-60
2023/09/18 02:41:41;;;;;;;;;;;;;;;;;;5081448;28;19920;-60
2023/09/18 02:44:07;;;;;;;;;;;;;;;;;;5083171;28;19927;-60
2023/09/18 02:46:33;;;;;;;;;;;;;;;;;;5080349;28;19913;-60
2023/09/18 02:48:59;;;;;;;;;;;;;;;;;;5080742;28;19944;-60
2023/09/18 02:51:25;;;;;;;;;;;;;;;;;;5084922;28;19912;-61
2023/09/18 02:53:51;;;;;;;;;;;;;;;;;;5078275;28;19974;-60
2023/09/18 02:56:17;;;;;;;;;;;;;;;;;;5081472;28;19967;-60
2023/09/18 02:58:43;;;;;;;;;;;;;;;;;;5079226;28;19956;-60
2023/09/18 03:01:09;;;;;;;;;;;;;;;;;;5084934;28;19956;-60
2023/09/18 03:03:35;;;;;;;;;;;;;;;;;;5074212;28;20449;-60
2023/09/18 03:06:02;;;;;;;;;;;;;;;;;;5082157;28;19962;-61
2023/09/18 03:08:28;;;;;;;;;;;;;;;;;;5075315;28;19912;-60
2023/09/18 03:10:54;;;;;;;;;;;;;;;;;;5073338;28;19912;-60
2023/09/18 03:13:20;;;;;;;;;;;;;;;;;;5075193;28;19959;-60
2023/09/18 03:15:49;;;;;;;;;;;;;;;;;;5075882;28;20367;-60
2023/09/18 03:18:15;;;;;;;;;;;;;;;;;;5093167;28;19924;-60
2023/09/18 03:20:41;;;;;;;;;;;;;;;;;;5090072;28;19920;-62
2023/09/18 03:23:07;;;;;;;;;;;;;;;;;;5072668;28;19944;-61
2023/09/18 03:25:33;;;;;;;;;;;;;;;;;;5076653;28;19987;-60
2023/09/18 03:27:59;;;;;;;;;;;;;;;;;;5077095;28;20486;-61
2023/09/18 03:30:25;;;;;;;;;;;;;;;;;;5092069;28;19958;-61
2023/09/18 03:32:50;;;;;;;;;;;;;;;;;;5085548;28;19955;-61
2023/09/18 03:35:19;;;;;;;;;;;;;;;;;;5082419;28;19955;-61
2023/09/18 03:37:45;;;;;;;;;;;;;;;;;;5078161;28;19916;-61
2023/09/18 03:40:11;;;;;;;;;;;;;;;;;;5084201;28;19963;-61
2023/09/18 03:42:37;;;;;;;;;;;;;;;;;;5084990;28;19962;-61
2023/09/18 03:45:03;;;;;;;;;;;;;;;;;;5092480;28;19998;-60
2023/09/18 03:47:29;;;;;;;;;;;;;;;;;;5084601;28;20023;-62
2023/09/18 03:49:55;;;;;;;;;;;;;;;;;;5080890;28;19912;-61
2023/09/18 03:52:21;;;;;;;;;;;;;;;;;;5082738;28;19956;-61
2023/09/18 03:54:47;;;;;;;;;;;;;;;;;;5090363;28;19949;-62
2023/09/18 03:57:13;;;;;;;;;;;;;;;;;;5079239;28;19931;-61
2023/09/18 03:59:39;;;;;;;;;;;;;;;;;;5079290;28;19964;-61
2023/09/18 04:02:05;;;;;;;;;;;;;;;;;;5077805;28;20380;-61
2023/09/18 04:04:32;;;;;;;;;;;;;;;;;;5080307;28;19916;-61
2023/09/18 04:06:58;;;;;;;;;;;;;;;;;;5089696;28;20390;-61
2023/09/18 04:09:24;;;;;;;;;;;;;;;;;;5085602;28;19999;-61
2023/09/18 04:11:49;;;;;;;;;;;;;;;;;;5082723;28;19954;-61
2023/09/18 04:14:15;;;;;;;;;;;;;;;;;;5081152;28;20341;-61
2023/09/18 04:16:42;;;;;;;;;;;;;;;;;;5083174;28;20015;-62
2023/09/18 04:19:09;;;;;;;;;;;;;;;;;;5077817;28;20318;-61
2023/09/18 04:21:35;;;;;;;;;;;;;;;;;;5082308;28;19950;-60
2023/09/18 04:24:01;;;;;;;;;;;;;;;;;;5077024;28;20280;-61
2023/09/18 04:26:30;;;;;;;;;;;;;;;;;;5076788;28;19913;-61
2023/09/18 04:28:56;;;;;;;;;;;;;;;;;;5089404;28;19916;-61
2023/09/18 04:31:22;;;;;;;;;;;;;;;;;;5073340;28;19959;-61
2023/09/18 04:33:48;;;;;;;;;;;;;;;;;;5074746;28;20002;-61
2023/09/18 04:36:14;;;;;;;;;;;;;;;;;;5073508;28;19916;-60
2023/09/18 04:38:40;;;;;;;;;;;;;;;;;;5079661;28;20005;-60
2023/09/18 04:41:07;;;;;;;;;;;;;;;;;;5083444;28;19916;-61
2023/09/18 04:43:33;;;;;;;;;;;;;;;;;;5078926;28;20287;-61
2023/09/18 04:45:58;;;;;;;;;;;;;;;;;;5077799;28;19952;-60
2023/09/18 04:48:24;;;;;;;;;;;;;;;;;;5082873;28;19917;-61
2023/09/18 04:50:50;;;;;;;;;;;;;;;;;;5084060;28;19944;-60
2023/09/18 04:53:16;;;;;;;;;;;;;;;;;;5071930;28;19912;-60
2023/09/18 04:55:42;;;;;;;;;;;;;;;;;;5078367;28;19955;-61
2023/09/18 04:58:08;;;;;;;;;;;;;;;;;;5076518;28;19978;-62
2023/09/18 05:00:34;;;;;;;;;;;;;;;;;;5079202;28;19943;-61
2023/09/18 05:03:01;;;;;;;;;;;;;;;;;;5077855;28;19964;-61
2023/09/18 05:05:27;;;;;;;;;;;;;;;;;;5074352;28;20006;-61
2023/09/18 05:07:53;;;;;;;;;;;;;;;;;;5078109;28;20027;-60
2023/09/18 05:10:19;;;;;;;;;;;;;;;;;;5081855;28;20015;-62
2023/09/18 05:12:45;;;;;;;;;;;;;;;;;;5080533;28;19999;-60
2023/09/18 05:15:12;;;;;;;;;;;;;;;;;;5074892;28;20083;-61
2023/09/18 05:17:38;;;;;;;;;;;;;;;;;;5080692;28;19920;-61
2023/09/18 05:20:04;;;;;;;;;;;;;;;;;;5080366;28;20018;-62
2023/09/18 05:22:30;;;;;;;;;;;;;;;;;;5075929;28;19955;-60
2023/09/18 05:24:56;;;;;;;;;;;;;;;;;;5086241;28;20385;-61
2023/09/18 05:27:25;;;;;;;;;;;;;;;;;;5079328;28;20386;-61
2023/09/18 05:29:50;;;;;;;;;;;;;;;;;;5081738;28;19913;-61
2023/09/18 05:32:16;;;;;;;;;;;;;;;;;;5077949;28;19912;-61
2023/09/18 05:34:42;;;;;;;;;;;;;;;;;;5078760;28;20387;-60
2023/09/18 05:37:08;;;;;;;;;;;;;;;;;;5068439;28;20021;-60
2023/09/18 05:39:35;;;;;;;;;;;;;;;;;;5070586;28;20768;-60
2023/09/18 05:42:01;;;;;;;;;;;;;;;;;;5077950;28;19921;-60
2023/09/18 05:44:27;;;;;;;;;;;;;;;;;;5080364;28;20099;-60
2023/09/18 05:46:53;;;;;;;;;;;;;;;;;;5083674;28;19966;-60
2023/09/18 05:49:19;;;;;;;;;;;;;;;;;;5077861;28;19958;-60
2023/09/18 05:51:47;;;;;;;;;;;;;;;;;;5081009;28;19963;-60
2023/09/18 05:54:13;;;;;;;;;;;;;;;;;;5077034;28;19921;-60
2023/09/18 05:56:38;;;;;;;;;;;;;;;;;;5088015;28;19963;-60
2023/09/18 05:59:05;;;;;;;;;;;;;;;;;;5086817;28;19917;-60
2023/09/18 06:01:32;;;;;;;;;;;;;;;;;;5078660;28;19919;-60
2023/09/18 06:03:58;;;;;;;;;;;;;;;;;;5076026;28;19913;-61
2023/09/18 06:06:25;;;;;;;;;;;;;;;;;;5088712;28;19927;-61
2023/09/18 06:08:53;;;;;;;;;;;;;;;;;;5082761;28;20273;-60
2023/09/18 06:11:19;;;;;;;;;;;;;;;;;;5082698;28;19912;-60
2023/09/18 06:13:45;;;;;;;;;;;;;;;;;;5087284;28;20028;-60
2023/09/18 06:16:11;;;;;;;;;;;;;;;;;;5076357;28;19916;-61
2023/09/18 06:18:38;;;;;;;;;;;;;;;;;;5076452;28;19965;-61
2023/09/18 06:21:04;;;;;;;;;;;;;;;;;;5079366;28;19927;-60
2023/09/18 06:23:30;;;;;;;;;;;;;;;;;;5074534;28;19912;-61
2023/09/18 06:25:56;;;;;;;;;;;;;;;;;;5084972;28;20443;-60
2023/09/18 06:28:22;;;;;;;;;;;;;;;;;;5081825;28;19928;-60
2023/09/18 06:30:48;;;;;;;;;;;;;;;;;;5083892;28;19947;-60
2023/09/18 06:33:14;;;;;;;;;;;;;;;;;;5072186;28;19916;-60
2023/09/18 06:35:40;;;;;;;;;;;;;;;;;;5079737;28;19955;-60
2023/09/18 06:38:06;;;;;;;;;;;;;;;;;;5085500;28;20333;-60
2023/09/18 06:40:32;;;;;;;;;;;;;;;;;;5080771;28;19912;-59
2023/09/18 06:42:58;;;;;;;;;;;;;;;;;;5076737;28;19924;-61
2023/09/18 06:45:24;;;;;;;;;;;;;;;;;;5075977;28;20022;-61
2023/09/18 06:47:50;;;;;;;;;;;;;;;;;;5076243;28;20041;-60
2023/09/18 06:50:18;;;;;;;;;;;;;;;;;;5077440;28;20360;-61
2023/09/18 06:52:44;;;;;;;;;;;;;;;;;;5082968;28;19999;-62
2023/09/18 06:55:10;;;;;;;;;;;;;;;;;;5085878;28;20006;-62
2023/09/18 06:57:36;;;;;;;;;;;;;;;;;;5081218;28;20484;-62
2023/09/18 07:00:02;;;;;;;;;;;;;;;;;;5079527;28;19951;-62
2023/09/18 07:02:28;;;;;;;;;;;;;;;;;;5087689;28;19912;-61
2023/09/18 07:04:54;;;;;;;;;;;;;;;;;;5080313;28;19920;-62
2023/09/18 07:07:25;;;;;;;;;;;;;;;;;;5076297;28;20003;-61
2023/09/18 07:09:50;;;;;;;;;;;;;;;;;;5081192;28;19912;-61
2023/09/18 07:12:19;;;;;;;;;;;;;;;;;;5090144;28;19955;-62
2023/09/18 07:14:45;;;;;;;;;;;;;;;;;;5081464;28;19958;-62
2023/09/18 07:17:11;;;;;;;;;;;;;;;;;;5089252;28;20043;-62
2023/09/18 07:19:37;;;;;;;;;;;;;;;;;;5075094;28;20445;-62
2023/09/18 07:22:03;;;;;;;;;;;;;;;;;;5089198;28;19955;-61
2023/09/18 07:24:29;;;;;;;;;;;;;;;;;;5091088;28;19919;-61
2023/09/18 07:26:54;;;;;;;;;;;;;;;;;;5076987;28;20441;-59
2023/09/18 07:29:20;;;;;;;;;;;;;;;;;;5087058;28;19912;-62
2023/09/18 07:31:46;;;;;;;;;;;;;;;;;;5090523;28;20072;-62
2023/09/18 07:34:13;;;;;;;;;;;;;;;;;;5083031;28;19994;-61
2023/09/18 07:36:39;;;;;;;;;;;;;;;;;;5083944;28;20318;-62
2023/09/18 07:39:05;;;;;;;;;;;;;;;;;;5088492;28;19991;-62
2023/09/18 07:41:31;;;;;;;;;;;;;;;;;;5083728;28;19939;-62
2023/09/18 07:44:00;;;;;;;;;;;;;;;;;;5080734;28;19958;-62
2023/09/18 07:46:26;;;;;;;;;;;;;;;;;;5080987;28;20328;-62
2023/09/18 07:48:51;;;;;;;;;;;;;;;;;;5088296;28;19955;-62
2023/09/18 07:51:17;;;;;;;;;;;;;;;;;;5083403;28;19970;-61
2023/09/18 07:53:44;;;;;;;;;;;;;;;;;;5081719;28;19920;-62
2023/09/18 07:56:10;;;;;;;;;;;;;;;;;;5077587;28;19932;-61
2023/09/18 07:58:38;;;;;;;;;;;;;;;;;;5081853;28;19963;-61
2023/09/18 08:01:05;;;;;;;;;;;;;;;;;;5078684;28;20380;-62
2023/09/18 08:03:30;;;;;;;;;;;;;;;;;;5089087;28;19912;-62
2023/09/18 08:05:57;;;;;;;;;;;;;;;;;;5081018;28;20238;-60
2023/09/18 08:08:23;;;;;;;;;;;;;;;;;;5087416;28;19916;-62
2023/09/18 08:10:49;;;;;;;;;;;;;;;;;;5080969;28;19908;-62
2023/09/18 08:13:15;;;;;;;;;;;;;;;;;;5087979;28;19983;-62
2023/09/18 08:15:41;;;;;;;;;;;;;;;;;;5081465;28;19909;-61
2023/09/18 08:18:07;;;;;;;;;;;;;;;;;;5086504;28;20285;-62
2023/09/18 08:20:33;;;;;;;;;;;;;;;;;;5084975;28;19924;-61
2023/09/18 08:23:01;;;;;;;;;;;;;;;;;;5077125;28;19948;-62
2023/09/18 08:25:27;;;;;;;;;;;;;;;;;;5078232;28;19966;-62
2023/09/18 08:27:52;;;;;;;;;;;;;;;;;;5078596;28;19912;-62
2023/09/18 08:30:20;;;;;;;;;;;;;;;;;;5088591;28;19916;-62
2023/09/18 08:32:47;;;;;;;;;;;;;;;;;;5091250;28;19912;-62
2023/09/18 08:35:13;;;;;;;;;;;;;;;;;;5072828;28;20326;-62
2023/09/18 08:37:38;;;;;;;;;;;;;;;;;;5089825;28;19962;-62
2023/09/18 08:40:09;;;;;;;;;;;;;;;;;;5088761;28;19918;-62
2023/09/18 08:42:35;;;;;;;;;;;;;;;;;;5086681;28;19908;-63
2023/09/18 08:45:01;;;;;;;;;;;;;;;;;;5073394;28;19908;-63
2023/09/18 08:47:27;;;;;;;;;;;;;;;;;;5079200;28;19908;-62
2023/09/18 08:49:53;;;;;;;;;;;;;;;;;;5079446;28;19959;-62
2023/09/18 08:52:19;;;;;;;;;;;;;;;;;;5083904;28;19916;-62
2023/09/18 08:54:45;;;;;;;;;;;;;;;;;;5081400;28;19912;-62
2023/09/18 08:57:11;;;;;;;;;;;;;;;;;;5076446;28;19946;-62
2023/09/18 08:59:37;;;;;;;;;;;;;;;;;;5081535;28;20379;-63
2023/09/18 09:02:03;;;;;;;;;;;;;;;;;;5086441;28;19913;-63
2023/09/18 09:04:29;;;;;;;;;;;;;;;;;;5084637;28;20014;-62
2023/09/18 09:06:58;;;;;;;;;;;;;;;;;;5076269;28;19908;-62
2023/09/18 09:09:26;;;;;;;;;;;;;;;;;;5085761;28;20360;-61
2023/09/18 09:11:52;;;;;;;;;;;;;;;;;;5079632;28;19912;-62
2023/09/18 09:14:21;;;;;;;;;;;;;;;;;;5072388;28;19913;-59
2023/09/18 09:16:48;;;;;;;;;;;;;;;;;;5085754;28;19912;-62
2023/09/18 09:19:14;;;;;;;;;;;;;;;;;;5071878;28;19912;-62
2023/09/18 09:21:40;;;;;;;;;;;;;;;;;;5085325;28;20455;-62
2023/09/18 09:24:06;;;;;;;;;;;;;;;;;;5080458;28;19908;-59
2023/09/18 09:26:32;;;;;;;;;;;;;;;;;;5079206;28;19970;-62
2023/09/18 09:28:58;;;;;;;;;;;;;;;;;;5079120;28;19919;-62
2023/09/18 09:31:24;;;;;;;;;;;;;;;;;;5085201;28;19954;-62
2023/09/18 09:33:53;;;;;;;;;;;;;;;;;;5073457;28;19919;-62
2023/09/18 09:36:19;;;;;;;;;;;;;;;;;;5085691;28;19952;-62
2023/09/18 09:38:45;;;;;;;;;;;;;;;;;;5078428;28;20441;-61
2023/09/18 09:41:11;;;;;;;;;;;;;;;;;;5090372;28;19952;-62
2023/09/18 09:43:37;;;;;;;;;;;;;;;;;;5081292;28;19914;-62
2023/09/18 09:46:03;;;;;;;;;;;;;;;;;;5077992;28;20399;-62
2023/09/18 09:48:31;;;;;;;;;;;;;;;;;;5084843;28;19915;-62
2023/09/18 09:50:57;;;;;;;;;;;;;;;;;;5072077;28;19970;-62
2023/09/18 09:53:23;;;;;;;;;;;;;;;;;;5083436;28;20064;-62
2023/09/18 09:55:49;;;;;;;;;;;;;;;;;;5075487;28;19965;-62
2023/09/18 09:58:15;;;;;;;;;;;;;;;;;;5084134;28;19913;-61
2023/09/18 10:00:42;;;;;;;;;;;;;;;;;;5084525;28;19908;-62
2023/09/18 10:03:08;;;;;;;;;;;;;;;;;;5079390;28;19914;-62
2023/09/18 10:05:35;;;;;;;;;;;;;;;;;;5071341;28;20321;-62
2023/09/18 10:08:01;;;;;;;;;;;;;;;;;;5079120;28;19915;-61
2023/09/18 10:10:27;;;;;;;;;;;;;;;;;;5076342;28;19968;-61
2023/09/18 10:12:53;;;;;;;;;;;;;;;;;;5078937;28;20391;-61
2023/09/18 10:15:19;;;;;;;;;;;;;;;;;;5079873;28;20003;-61
2023/09/18 10:17:45;;;;;;;;;;;;;;;;;;5086155;28;19912;-61
2023/09/18 10:20:19;;;;;;;;;;;;;;;;;;5083227;28;20091;-61
2023/09/18 10:22:46;;;;;;;;;;;;;;;;;;5075726;28;19912;-61
2023/09/18 10:25:17;;;;;;;;;;;;;;;;;;5082395;28;20376;-61
2023/09/18 10:27:43;;;;;;;;;;;;;;;;;;5082287;28;19967;-61
2023/09/18 10:30:10;;;;;;;;;;;;;;;;;;5088449;28;19983;-61
2023/09/18 10:32:36;;;;;;;;;;;;;;;;;;5087390;28;19923;-61
2023/09/18 10:35:03;;;;;;;;;;;;;;;;;;5077070;28;20376;-61
2023/09/18 10:37:28;;;;;;;;;;;;;;;;;;5083787;28;19916;-61
2023/09/18 10:39:54;;;;;;;;;;;;;;;;;;5088242;28;19914;-61
2023/09/18 10:42:20;;;;;;;;;;;;;;;;;;5082713;28;20418;-61
2023/09/18 10:44:46;;;;;;;;;;;;;;;;;;5081826;28;19916;-62
2023/09/18 10:47:14;;;;;;;;;;;;;;;;;;5082677;28;19912;-61
2023/09/18 10:49:40;;;;;;;;;;;;;;;;;;5084503;28;19917;-61
2023/09/18 10:52:06;;;;;;;;;;;;;;;;;;5090699;28;19972;-61
2023/09/18 10:54:32;;;;;;;;;;;;;;;;;;5088100;28;19913;-62
2023/09/18 10:56:58;;;;;;;;;;;;;;;;;;5084846;28;19970;-61
2023/09/18 10:59:24;;;;;;;;;;;;;;;;;;5088197;28;19956;-61
2023/09/18 11:01:50;;;;;;;;;;;;;;;;;;5091485;28;20014;-61
2023/09/18 11:04:17;;;;;;;;;;;;;;;;;;5082053;28;20422;-61
2023/09/18 11:06:43;;;;;;;;;;;;;;;;;;5084757;28;20007;-61
2023/09/18 11:09:09;;;;;;;;;;;;;;;;;;5077090;28;20000;-62
2023/09/18 11:11:36;;;;;;;;;;;;;;;;;;5076133;28;20003;-61
2023/09/18 11:14:04;;;;;;;;;;;;;;;;;;5089556;28;19995;-61
2023/09/18 11:16:30;;;;;;;;;;;;;;;;;;5090460;28;20275;-63
2023/09/18 11:18:56;;;;;;;;;;;;;;;;;;5084482;28;19912;-61
2023/09/18 11:21:22;;;;;;;;;;;;;;;;;;5080751;28;20284;-62
2023/09/18 11:23:48;;;;;;;;;;;;;;;;;;5086068;28;19917;-61
2023/09/18 11:26:14;;;;;;;;;;;;;;;;;;5074424;28;19998;-61
2023/09/18 11:28:42;;;;;;;;;;;;;;;;;;5089274;28;19908;-61
2023/09/18 11:31:08;;;;;;;;;;;;;;;;;;5091174;28;19908;-61
2023/09/18 11:33:34;;;;;;;;;;;;;;;;;;5086737;28;19915;-62
2023/09/18 11:36:00;;;;;;;;;;;;;;;;;;5074850;28;19958;-61
2023/09/18 11:38:26;;;;;;;;;;;;;;;;;;5078982;28;20280;-61
2023/09/18 11:40:52;;;;;;;;;;;;;;;;;;5086655;28;19999;-61
2023/09/18 11:43:18;;;;;;;;;;;;;;;;;;5076510;28;19995;-61
2023/09/18 11:45:47;;;;;;;;;;;;;;;;;;5077182;28;20340;-61
2023/09/18 11:48:13;;;;;;;;;;;;;;;;;;5083392;28;19921;-62
2023/09/18 11:50:39;;;;;;;;;;;;;;;;;;5081904;28;19993;-61
2023/09/18 11:53:05;;;;;;;;;;;;;;;;;;5081158;28;19912;-61
2023/09/18 11:55:31;;;;;;;;;;;;;;;;;;5087607;28;20287;-62
2023/09/18 11:58:01;;;;;;;;;;;;;;;;;;5079174;28;19916;-61
2023/09/18 12:00:29;;;;;;;;;;;;;;;;;;5087113;28;20018;-61
2023/09/18 12:02:55;;;;;;;;;;;;;;;;;;5080388;28;19912;-61
2023/09/18 12:05:25;;;;;;;;;;;;;;;;;;5088068;28;20337;-62
2023/09/18 12:07:51;;;;;;;;;;;;;;;;;;5074221;28;19915;-61
2023/09/18 12:10:17;;;;;;;;;;;;;;;;;;5076967;28;19959;-62
2023/09/18 12:12:43;;;;;;;;;;;;;;;;;;5073166;28;20440;-62
2023/09/18 12:15:09;;;;;;;;;;;;;;;;;;5074907;28;19913;-62
2023/09/18 12:17:35;;;;;;;;;;;;;;;;;;5082621;28;19970;-61
2023/09/18 12:20:04;;;;;;;;;;;;;;;;;;5086541;28;20324;-60
2023/09/18 12:22:30;;;;;;;;;;;;;;;;;;5080097;28;19920;-61
2023/09/18 12:24:56;;;;;;;;;;;;;;;;;;5088369;28;19908;-62
2023/09/18 12:27:26;;;;;;;;;;;;;;;;;;5073403;28;19993;-62
2023/09/18 12:29:52;;;;;;;;;;;;;;;;;;5079664;28;19916;-61
2023/09/18 12:32:18;;;;;;;;;;;;;;;;;;5083969;28;19955;-61
2023/09/18 12:34:44;;;;;;;;;;;;;;;;;;5074500;28;19912;-61
2023/09/18 12:37:11;;;;;;;;;;;;;;;;;;5082840;28;19913;-62
2023/09/18 12:39:37;;;;;;;;;;;;;;;;;;5086064;28;19998;-61
2023/09/18 12:42:03;;;;;;;;;;;;;;;;;;5077990;28;19917;-61
2023/09/18 12:44:29;;;;;;;;;;;;;;;;;;5080095;28;20279;-61
2023/09/18 12:46:55;;;;;;;;;;;;;;;;;;5073007;28;19944;-61
2023/09/18 12:49:21;;;;;;;;;;;;;;;;;;5082059;28;19912;-61
2023/09/18 12:51:47;;;;;;;;;;;;;;;;;;5079907;28;19973;-61
2023/09/18 12:54:13;;;;;;;;;;;;;;;;;;5082402;28;19964;-61
2023/09/18 12:56:39;;;;;;;;;;;;;;;;;;5077321;28;20415;-61
2023/09/18 12:59:05;;;;;;;;;;;;;;;;;;5076039;28;20011;-61
2023/09/18 13:01:31;;;;;;;;;;;;;;;;;;5074250;28;19912;-61
2023/09/18 13:03:57;;;;;;;;;;;;;;;;;;5080276;28;19916;-61
2023/09/18 13:06:24;;;;;;;;;;;;;;;;;;5072782;28;20043;-61
2023/09/18 13:08:53;;;;;;;;;;;;;;;;;;5084623;28;19916;-61
2023/09/18 13:11:18;;;;;;;;;;;;;;;;;;5076462;28;20371;-61
2023/09/18 13:13:44;;;;;;;;;;;;;;;;;;5083657;28;19908;-61
2023/09/18 13:16:11;;;;;;;;;;;;;;;;;;5075878;28;19919;-61
2023/09/18 13:18:39;;;;;;;;;;;;;;;;;;5077494;28;19958;-62
2023/09/18 13:21:05;;;;;;;;;;;;;;;;;;5084873;28;19924;-61
2023/09/18 13:23:31;;;;;;;;;;;;;;;;;;5079376;28;19966;-62
2023/09/18 13:25:57;;;;;;;;;;;;;;;;;;5073186;28;19956;-62
2023/09/18 13:28:23;;;;;;;;;;;;;;;;;;5074172;28;19989;-61
2023/09/18 13:30:49;;;;;;;;;;;;;;;;;;5079552;28;19912;-62
2023/09/18 13:33:16;;;;;;;;;;;;;;;;;;5078537;28;20360;-61
2023/09/18 13:35:42;;;;;;;;;;;;;;;;;;5074256;28;19925;-61
2023/09/18 13:38:07;;;;;;;;;;;;;;;;;;5071214;28;20681;-61
2023/09/18 13:40:34;;;;;;;;;;;;;;;;;;5077561;28;19974;-61
2023/09/18 13:42:59;;;;;;;;;;;;;;;;;;5076667;28;20338;-62
2023/09/18 13:45:25;;;;;;;;;;;;;;;;;;5086153;28;19908;-61
2023/09/18 13:47:51;;;;;;;;;;;;;;;;;;5076583;28;19951;-60
2023/09/18 13:50:17;;;;;;;;;;;;;;;;;;5075736;28;19999;-60
2023/09/18 13:52:43;;;;;;;;;;;;;;;;;;5084017;28;19952;-60
2023/09/18 13:55:09;;;;;;;;;;;;;;;;;;5076613;28;20291;-60
2023/09/18 13:57:35;;;;;;;;;;;;;;;;;;5077440;28;19917;-60
2023/09/18 14:00:04;;;;;;;;;;;;;;;;;;5080660;28;19922;-60
2023/09/18 14:02:30;;;;;;;;;;;;;;;;;;5075302;28;19941;-61
2023/09/18 14:04:56;;;;;;;;;;;;;;;;;;5074723;28;20407;-60
2023/09/18 14:07:23;;;;;;;;;;;;;;;;;;5072786;28;20032;-60
2023/09/18 14:09:49;;;;;;;;;;;;;;;;;;5072658;28;20028;-60
2023/09/18 14:12:14;;;;;;;;;;;;;;;;;;5071231;28;20480;-60
2023/09/18 14:14:40;;;;;;;;;;;;;;;;;;5077098;28;19955;-60
2023/09/18 14:17:06;;;;;;;;;;;;;;;;;;5072987;28;19917;-59
2023/09/18 14:19:32;;;;;;;;;;;;;;;;;;5074134;28;19954;-59
2023/09/18 14:22:03;;;;;;;;;;;;;;;;;;5076395;28;20420;-60
2023/09/18 14:24:29;;;;;;;;;;;;;;;;;;5074564;28;20011;-60
2023/09/18 14:26:55;;;;;;;;;;;;;;;;;;5073986;28;20015;-60
2023/09/18 14:29:21;;;;;;;;;;;;;;;;;;5073663;28;19913;-59
2023/09/18 14:31:47;;;;;;;;;;;;;;;;;;5073334;28;19986;-60
2023/09/18 14:34:13;;;;;;;;;;;;;;;;;;5077044;28;19986;-60
2023/09/18 14:36:39;;;;;;;;;;;;;;;;;;5082926;28;19919;-60
2023/09/18 14:39:07;;;;;;;;;;;;;;;;;;5070218;28;20511;-60
2023/09/18 14:41:33;;;;;;;;;;;;;;;;;;5076120;28;19927;-60
2023/09/18 14:43:59;;;;;;;;;;;;;;;;;;5071552;28;20407;-60
2023/09/18 14:46:25;;;;;;;;;;;;;;;;;;5078221;28;19940;-60
2023/09/18 14:48:51;;;;;;;;;;;;;;;;;;5075792;28;19969;-60
2023/09/18 14:51:18;;;;;;;;;;;;;;;;;;5071276;28;20413;-60
2023/09/18 14:53:43;;;;;;;;;;;;;;;;;;5078800;28;19920;-60
2023/09/18 14:56:10;;;;;;;;;;;;;;;;;;5078597;28;19972;-60
2023/09/18 14:58:35;;;;;;;;;;;;;;;;;;5077129;28;20010;-60
2023/09/18 15:01:02;;;;;;;;;;;;;;;;;;5078848;28;20392;-57
2023/09/18 15:03:28;;;;;;;;;;;;;;;;;;5082267;28;19913;-57
2023/09/18 15:05:55;;;;;;;;;;;;;;;;;;5069210;28;19959;-57
2023/09/18 15:08:21;;;;;;;;;;;;;;;;;;5071924;28;19921;-58
2023/09/18 15:10:47;;;;;;;;;;;;;;;;;;5077413;28;19968;-58
2023/09/18 15:13:14;;;;;;;;;;;;;;;;;;5081324;28;19915;-58
2023/09/18 15:15:40;;;;;;;;;;;;;;;;;;5076138;28;19916;-59
2023/09/18 15:18:06;;;;;;;;;;;;;;;;;;5074949;28;19963;-58
2023/09/18 15:20:32;;;;;;;;;;;;;;;;;;5088202;28;20379;-57
2023/09/18 15:22:57;;;;;;;;;;;;;;;;;;5078595;28;19951;-57
2023/09/18 15:25:23;;;;;;;;;;;;;;;;;;5085791;28;20013;-58
2023/09/18 15:28:09;;;;;;;;;;;;;;;;;;5078814;28;20046;-57
2023/09/18 15:30:35;;;;;;;;;;;;;;;;;;5076141;28;19944;-57
2023/09/18 15:33:01;;;;;;;;;;;;;;;;;;5085102;28;20396;-57
2023/09/18 15:35:27;;;;;;;;;;;;;;;;;;5080524;28;20376;-57
2023/09/18 15:37:53;;;;;;;;;;;;;;;;;;5092964;28;19920;-57
2023/09/18 15:40:19;;;;;;;;;;;;;;;;;;5084673;28;19992;-57
2023/09/18 15:42:45;;;;;;;;;;;;;;;;;;5075011;28;19919;-57
2023/09/18 15:45:11;;;;;;;;;;;;;;;;;;5074502;28;19913;-57
2023/09/18 15:47:37;;;;;;;;;;;;;;;;;;5077282;28;19920;-59
2023/09/18 15:50:04;;;;;;;;;;;;;;;;;;5084735;28;20313;-57
2023/09/18 15:52:30;;;;;;;;;;;;;;;;;;5081508;28;19951;-58
2023/09/18 15:54:56;;;;;;;;;;;;;;;;;;5081935;28;19948;-58
2023/09/18 15:57:22;;;;;;;;;;;;;;;;;;5085871;28;19916;-59
2023/09/18 15:59:48;;;;;;;;;;;;;;;;;;5078907;28;19927;-57
2023/09/18 16:02:14;;;;;;;;;;;;;;;;;;5084388;28;19960;-56
2023/09/18 16:04:40;;;;;;;;;;;;;;;;;;5078143;28;19913;-57
2023/09/18 16:07:11;;;;;;;;;;;;;;;;;;5081687;28;19963;-59
2023/09/18 16:09:37;;;;;;;;;;;;;;;;;;5076096;28;20113;-58
2023/09/18 16:12:03;;;;;;;;;;;;;;;;;;5077419;28;19991;-58
2023/09/18 16:14:29;;;;;;;;;;;;;;;;;;5081866;28;20392;-61
2023/09/18 16:16:55;;;;;;;;;;;;;;;;;;5078531;28;19956;-61
2023/09/18 16:19:21;;;;;;;;;;;;;;;;;;5079049;28;20383;-61
2023/09/18 16:21:47;;;;;;;;;;;;;;;;;;5084675;28;20607;-58
2023/09/18 16:24:15;;;;;;;;;;;;;;;;;;5081198;28;20485;-60
2023/09/18 16:26:41;;;;;;;;;;;;;;;;;;5081148;28;19917;-59
2023/09/18 16:29:07;;;;;;;;;;;;;;;;;;5076979;28;19959;-59
2023/09/18 16:31:33;;;;;;;;;;;;;;;;;;5074613;28;19975;-59
2023/09/18 16:33:59;;;;;;;;;;;;;;;;;;5082002;28;20383;-58
2023/09/18 16:36:26;;;;;;;;;;;;;;;;;;5078745;28;20361;-58
2023/09/18 16:38:52;;;;;;;;;;;;;;;;;;5075636;28;19917;-59